createdAt,value
2022-09-05T05:35:23.229Z,38.83
2022-09-05T05:38:26.527Z,38.97
2022-09-05T05:41:24.043Z,38.95
2022-09-05T05:44:13.978Z,38.79
2022-09-05T05:46:47.611Z,38.80
2022-09-05T05:49:53.416Z,39.02
2022-09-05T05:52:40.888Z,38.96
2022-09-05T05:55:51.886Z,38.98
2022-09-05T05:58:51.879Z,38.97
2022-09-05T06:05:07.821Z,39.02
2022-09-05T06:10:36.957Z,39.03
2022-09-05T06:14:56.699Z,39.10
2022-09-05T06:14:58.563Z,39.16
2022-09-05T06:17:40.353Z,39.20
2022-09-05T06:24:41.313Z,39.26
2022-09-05T06:28:17.954Z,39.36
2022-09-05T06:31:36.161Z,39.25
2022-09-05T06:34:58.113Z,39.33
2022-09-05T06:37:58.962Z,39.58
2022-09-05T06:43:35.896Z,39.72
2022-09-05T06:46:54.723Z,39.78
2022-09-05T06:49:37.291Z,39.80
2022-09-05T06:52:33.808Z,39.86
2022-09-05T06:55:43.491Z,39.79
2022-09-05T06:58:38.766Z,39.93
2022-09-05T07:01:14.484Z,39.83
2022-09-05T07:05:14.729Z,39.99
2022-09-05T07:07:23.347Z,39.88
2022-09-05T07:10:16.942Z,39.94
2022-09-05T07:14:07.950Z,39.84
2022-09-05T07:19:43.665Z,40.04
2022-09-05T07:23:47.716Z,39.98
2022-09-05T07:28:29.661Z,40.00
2022-09-05T08:13:24.578Z,40.60
2022-09-05T08:27:17.024Z,40.44
2022-09-05T08:51:55.618Z,41.11
2022-09-05T08:55:07.079Z,41.18
2022-09-05T08:57:47.382Z,41.25
2022-09-05T09:00:24.416Z,41.34
2022-09-05T09:03:06.441Z,41.46
2022-09-05T09:06:13.867Z,41.52
2022-09-05T09:08:51.397Z,41.60
2022-09-05T09:11:31.107Z,41.75
2022-09-05T09:14:35.865Z,41.87
2022-09-05T09:17:27.181Z,41.98
2022-09-05T09:20:15.628Z,42.19
2022-09-05T09:23:32.214Z,42.26
2022-09-05T09:26:17.319Z,42.58
2022-09-05T09:28:51.947Z,42.61
2022-09-05T09:31:53.399Z,42.97
2022-09-05T09:34:38.167Z,43.16
2022-09-05T09:37:50.586Z,43.33
2022-09-05T09:41:00.805Z,43.55
2022-09-05T09:43:52.973Z,44.00
2022-09-05T09:46:39.036Z,44.44
2022-09-05T09:49:31.038Z,45.03
2022-09-05T09:52:06.848Z,45.37
2022-09-05T09:55:08.465Z,45.68
2022-09-05T09:57:46.048Z,45.94
2022-09-05T10:00:21.611Z,46.17
2022-09-05T10:05:49.625Z,46.33
2022-09-05T10:10:46.166Z,47.12
2022-09-05T10:10:49.028Z,46.77
2022-09-05T10:13:08.658Z,47.41
2022-09-05T10:16:04.077Z,47.56
2022-09-05T10:18:44.888Z,47.87
2022-09-05T10:21:26.041Z,48.05
2022-09-05T10:24:12.907Z,48.22
2022-09-05T10:27:10.781Z,48.52
2022-09-05T10:29:53.700Z,48.95
2022-09-05T10:35:09.570Z,49.07
2022-09-05T10:35:48.355Z,49.03
2022-09-05T10:38:25.032Z,49.21
2022-09-05T10:41:20.767Z,49.05
2022-09-05T10:44:03.821Z,48.77
2022-09-05T10:46:53.438Z,48.78
2022-09-05T10:49:45.023Z,48.82
2022-09-05T10:52:20.598Z,48.82
2022-09-05T10:55:15.260Z,49.03
2022-09-05T10:58:15.350Z,48.92
2022-09-05T11:02:28.784Z,48.80
2022-09-05T11:04:11.987Z,48.96
2022-09-05T11:06:42.990Z,49.06
2022-09-05T11:09:25.228Z,49.07
2022-09-05T11:12:23.427Z,48.95
2022-09-05T11:14:53.821Z,49.09
2022-09-05T11:17:28.943Z,49.23
2022-09-05T11:20:35.241Z,49.37
2022-09-05T11:23:10.916Z,49.37
2022-09-05T11:25:55.806Z,49.71
2022-09-05T11:29:00.368Z,50.01
2022-09-05T11:32:25.391Z,50.36
2022-09-05T11:39:51.996Z,50.35
2022-09-05T11:40:06.268Z,50.23
2022-09-05T11:41:16.116Z,49.92
2022-09-05T11:44:25.825Z,49.64
2022-09-05T11:47:30.224Z,49.01
2022-09-05T11:50:09.090Z,48.70
2022-09-05T11:53:03.501Z,48.25
2022-09-05T11:55:53.589Z,47.97
2022-09-05T11:58:47.278Z,47.74
2022-09-05T12:01:43.706Z,48.11
2022-09-05T12:05:50.766Z,48.17
2022-09-05T12:08:03.116Z,47.92
2022-09-05T12:10:51.885Z,47.47
2022-09-05T12:13:56.699Z,47.09
2022-09-05T12:16:46.218Z,46.61
2022-09-05T12:19:34.701Z,46.15
2022-09-05T12:22:18.723Z,45.94
2022-09-05T12:27:35.528Z,45.78
2022-09-05T12:28:54.638Z,45.63
2022-09-05T12:31:13.596Z,46.04
2022-09-05T12:36:06.804Z,46.52
2022-09-05T12:40:35.700Z,47.02
2022-09-05T12:41:38.938Z,47.04
2022-09-05T12:42:45.785Z,46.75
2022-09-05T12:45:50.461Z,46.45
2022-09-05T12:48:38.616Z,46.27
2022-09-05T12:51:47.083Z,46.34
2022-09-05T12:54:24.524Z,46.19
2022-09-05T13:01:44.873Z,46.09
2022-09-05T13:03:05.714Z,46.25
2022-09-05T13:03:28.592Z,46.21
2022-09-05T13:06:19.455Z,46.29
2022-09-05T13:09:10.770Z,46.57
2022-09-05T13:14:48.291Z,46.55
2022-09-05T13:15:22.697Z,46.63
2022-09-05T13:18:11.661Z,46.61
2022-09-05T13:20:45.966Z,46.53
2022-09-05T13:23:39.562Z,46.59
2022-09-05T13:26:40.281Z,46.58
2022-09-05T13:29:29.475Z,46.71
2022-09-05T13:37:56.439Z,46.65
2022-09-05T13:38:30.785Z,46.63
2022-09-05T13:38:48.457Z,46.70
2022-09-05T13:41:27.793Z,47.04
2022-09-05T13:44:00.325Z,46.83
2022-09-05T13:47:30.091Z,46.86
2022-09-05T13:50:13.773Z,47.09
2022-09-05T13:52:47.278Z,47.03
2022-09-05T13:55:40.180Z,47.35
2022-09-05T13:58:11.841Z,47.53
2022-09-05T14:00:55.154Z,47.43
2022-09-05T14:03:50.770Z,47.48
2022-09-05T14:06:51.868Z,47.53
2022-09-05T14:10:00.229Z,47.18
2022-09-05T14:12:42.283Z,47.02
2022-09-05T14:15:30.857Z,47.14
2022-09-05T14:18:30.394Z,47.14
2022-09-05T14:21:16.429Z,47.13
2022-09-05T14:23:56.518Z,47.34
2022-09-05T14:26:39.852Z,47.33
2022-09-05T14:29:18.876Z,47.17
2022-09-05T14:37:37.220Z,47.46
2022-09-05T14:37:41.620Z,47.43
2022-09-05T14:38:42.910Z,47.07
2022-09-05T14:41:34.700Z,46.62
2022-09-05T14:44:41.651Z,46.42
2022-09-05T14:47:35.247Z,46.14
2022-09-05T14:50:36.897Z,45.64
2022-09-05T14:57:16.493Z,45.65
2022-09-05T15:02:45.490Z,45.58
2022-09-05T15:02:54.498Z,45.45
2022-09-05T15:05:14.560Z,45.40
2022-09-05T15:11:23.973Z,45.17
2022-09-05T15:12:23.889Z,45.41
2022-09-05T15:14:19.258Z,45.41
2022-09-05T15:16:59.952Z,45.61
2022-09-05T15:20:05.576Z,45.48
2022-09-05T15:22:57.398Z,45.33
2022-09-05T15:25:29.134Z,45.20
2022-09-05T15:28:19.906Z,45.13
2022-09-05T15:31:01.531Z,44.97
2022-09-05T15:33:41.379Z,44.74
2022-09-05T15:39:09.752Z,44.52
2022-09-05T15:58:24.679Z,44.09
2022-09-05T16:00:56.536Z,44.03
2022-09-05T16:08:49.401Z,43.87
2022-09-05T16:10:36.253Z,43.84
2022-09-05T16:10:36.899Z,43.79
2022-09-05T16:23:19.951Z,43.49
2022-09-05T16:23:24.621Z,43.63
2022-09-05T16:23:25.122Z,43.47
2022-09-05T16:28:48.503Z,43.47
2022-09-05T16:31:26.367Z,43.51
2022-09-05T16:33:55.079Z,43.40
2022-09-05T16:36:36.152Z,43.47
2022-09-05T16:39:16.951Z,43.42
2022-09-05T16:42:09.693Z,43.34
2022-09-05T16:44:58.040Z,43.33
2022-09-05T16:47:30.044Z,43.27
2022-09-05T16:50:34.196Z,43.23
2022-09-05T16:53:30.324Z,43.22
2022-09-05T16:56:17.623Z,43.15
2022-09-05T16:59:03.954Z,43.09
2022-09-05T17:02:06.466Z,42.94
2022-09-05T17:05:03.291Z,42.99
2022-09-05T17:08:27.905Z,42.94
2022-09-05T17:11:29.887Z,42.83
2022-09-05T17:14:25.778Z,42.99
2022-09-05T17:17:20.247Z,42.93
2022-09-05T17:24:55.351Z,42.90
2022-09-05T17:29:26.614Z,42.85
2022-09-05T17:29:30.538Z,42.76
2022-09-05T17:32:01.936Z,42.76
2022-09-05T17:34:42.317Z,42.84
2022-09-05T17:37:22.510Z,42.83
2022-09-05T17:40:09.621Z,42.82
2022-09-05T17:42:59.093Z,42.79
2022-09-05T17:45:45.176Z,42.72
2022-09-05T17:48:42.389Z,42.64
2022-09-05T17:51:37.900Z,42.53
2022-09-05T17:54:08.987Z,42.55
2022-09-05T17:56:59.310Z,42.42
2022-09-05T17:59:28.779Z,42.44
2022-09-05T18:06:30.883Z,42.35
2022-09-05T18:08:58.667Z,42.49
2022-09-05T18:14:24.885Z,42.50
2022-09-05T18:17:36.997Z,42.31
2022-09-05T18:19:46.652Z,42.41
2022-09-05T18:22:31.989Z,42.24
2022-09-05T18:25:30.833Z,42.26
2022-09-05T18:28:32.719Z,42.18
2022-09-05T18:31:51.658Z,42.19
2022-09-05T18:34:19.370Z,42.14
2022-09-05T18:36:49.035Z,42.14
2022-09-05T18:39:29.251Z,42.12
2022-09-05T18:42:16.130Z,42.09
2022-09-05T18:45:01.060Z,42.12
2022-09-05T18:47:52.979Z,42.12
2022-09-05T18:50:32.463Z,42.23
2022-09-05T18:53:09.685Z,42.25
2022-09-05T18:56:13.599Z,42.17
2022-09-05T18:59:10.156Z,42.09
2022-09-05T19:01:43.959Z,42.07
2022-09-05T19:04:41.477Z,42.00
2022-09-05T19:07:22.373Z,42.00
2022-09-05T19:10:33.829Z,41.99
2022-09-05T19:13:17.923Z,42.01
2022-09-05T19:16:42.356Z,42.07
2022-09-05T19:19:16.331Z,42.13
2022-09-05T19:22:05.517Z,42.14
2022-09-05T19:24:44.835Z,42.11
2022-09-05T19:28:47.191Z,42.13
2022-09-05T19:37:02.247Z,42.24
2022-09-05T19:37:04.774Z,42.20
2022-09-05T19:37:12.359Z,42.25
2022-09-05T19:39:57.715Z,42.19
2022-09-05T19:47:43.031Z,42.12
2022-09-05T19:47:47.154Z,42.13
2022-09-05T19:50:32.126Z,41.97
2022-09-05T19:53:09.449Z,42.08
2022-09-05T19:55:46.096Z,42.08
2022-09-05T19:58:20.206Z,42.00
2022-09-05T20:01:02.338Z,42.13
2022-09-05T20:03:38.479Z,42.06
2022-09-05T20:06:31.151Z,42.11
2022-09-05T20:09:25.307Z,41.98
2022-09-05T20:11:57.076Z,41.91
2022-09-05T20:14:30.852Z,42.07
2022-09-05T20:17:23.669Z,42.01
2022-09-05T20:20:12.385Z,41.89
2022-09-05T20:22:48.955Z,42.01
2022-09-05T20:25:48.137Z,41.97
2022-09-05T20:28:32.605Z,41.88
2022-09-05T20:31:04.224Z,41.87
2022-09-05T20:33:51.646Z,41.89
2022-09-05T20:43:09.784Z,41.70
2022-09-05T20:43:15.643Z,41.81
2022-09-05T20:43:21.349Z,41.59
2022-09-05T20:45:03.504Z,41.60
2022-09-05T20:54:09.538Z,41.69
2022-09-05T20:54:23.021Z,41.59
2022-09-05T20:54:33.008Z,41.58
2022-09-05T20:56:22.864Z,41.56
2022-09-05T20:58:58.647Z,41.59
2022-09-05T21:01:27.641Z,41.55
2022-09-05T21:03:58.111Z,41.57
2022-09-05T21:06:41.680Z,41.43
2022-09-05T21:09:24.857Z,41.49
2022-09-05T21:11:55.107Z,41.46
2022-09-05T21:14:24.211Z,41.45
2022-09-05T21:17:01.118Z,41.32
2022-09-05T21:19:42.502Z,41.26
2022-09-05T21:22:18.764Z,41.35
2022-09-05T21:24:47.545Z,41.34
2022-09-05T21:27:25.860Z,41.18
2022-09-05T21:29:58.701Z,41.12
2022-09-05T21:32:37.961Z,41.06
2022-09-05T21:35:34.517Z,41.15
2022-09-05T21:37:56.976Z,41.14
2022-09-05T21:40:24.373Z,41.18
2022-09-05T21:45:33.775Z,41.05
2022-09-05T21:47:44.282Z,40.96
2022-09-05T21:48:39.659Z,41.10
2022-09-05T21:51:18.408Z,40.89
2022-09-05T21:59:25.704Z,40.96
2022-09-05T21:59:29.034Z,41.04
2022-09-05T21:59:56.000Z,40.90
2022-09-05T22:02:29.062Z,40.93
2022-09-05T22:05:04.770Z,40.93
2022-09-05T22:07:35.960Z,40.85
2022-09-05T22:10:05.101Z,40.90
2022-09-05T22:12:47.180Z,40.88
2022-09-05T22:15:32.537Z,40.70
2022-09-05T22:18:18.248Z,40.72
2022-09-05T22:21:32.775Z,40.76
